createdAt,value
2022-11-13T00:01:17.654Z,101965.03
2022-11-13T00:04:02.525Z,101968.50
2022-11-13T00:06:47.872Z,101970.19
2022-11-13T00:09:33.377Z,101967.41
2022-11-13T00:12:18.447Z,101966.28
2022-11-13T00:15:03.917Z,101959.94
2022-11-13T00:17:48.991Z,101952.78
2022-11-13T00:20:35.751Z,101963.13
2022-11-13T00:23:20.922Z,101962.22
2022-11-13T00:26:14.845Z,101959.34
2022-11-13T00:29:01.914Z,101955.81
2022-11-13T00:31:47.438Z,101950.28
2022-11-13T00:34:46.990Z,101951.84
2022-11-13T00:37:33.038Z,101944.59
2022-11-13T00:40:18.122Z,101936.56
2022-11-13T00:43:03.087Z,101927.63
2022-11-13T00:45:48.001Z,101941.56
2022-11-13T00:48:33.932Z,101931.72
2022-11-13T00:51:19.728Z,101925.47
2022-11-13T00:54:04.886Z,101929.66
2022-11-13T00:56:50.231Z,101930.34
2022-11-13T00:59:35.356Z,101930.34
2022-11-13T01:02:20.694Z,101932.00
2022-11-13T01:05:06.060Z,101925.78
2022-11-13T01:07:51.104Z,101934.44
2022-11-13T01:10:40.689Z,101935.28
2022-11-13T01:13:25.848Z,101930.81
2022-11-13T01:16:13.858Z,101935.16
2022-11-13T01:18:59.138Z,101929.03
2022-11-13T01:21:44.433Z,101924.59
2022-11-13T01:24:30.926Z,101926.34
2022-11-13T01:27:16.277Z,101919.25
2022-11-13T01:30:01.277Z,101920.00
2022-11-13T01:32:46.441Z,101918.19
2022-11-13T01:35:31.476Z,101918.19
2022-11-13T01:38:16.426Z,101918.94
2022-11-13T01:41:01.931Z,101915.19
2022-11-13T01:43:47.887Z,101917.66
2022-11-13T01:46:33.890Z,101919.28
2022-11-13T01:49:37.000Z,101904.31
2022-11-13T01:52:41.142Z,101910.25
2022-11-13T01:55:26.447Z,101903.22
2022-11-13T01:58:13.274Z,101897.88
2022-11-13T02:00:58.443Z,101900.41
2022-11-13T02:03:43.664Z,101896.00
2022-11-13T02:06:36.595Z,101882.81
2022-11-13T02:09:26.520Z,101878.38
2022-11-13T02:12:14.842Z,101881.81
2022-11-13T02:15:02.347Z,101882.59
2022-11-13T02:17:52.590Z,101877.28
2022-11-13T02:21:03.160Z,101875.41
2022-11-13T02:24:05.249Z,101874.50
2022-11-13T02:26:53.890Z,101881.38
2022-11-13T02:29:38.886Z,101879.53
2022-11-13T02:32:24.181Z,101881.06
2022-11-13T02:35:09.219Z,101869.63
2022-11-13T02:38:02.335Z,101872.13
2022-11-13T02:40:47.269Z,101875.41
2022-11-13T02:43:32.427Z,101871.59
2022-11-13T02:46:17.490Z,101874.03
2022-11-13T02:49:02.989Z,101879.91
2022-11-13T02:51:48.456Z,101882.34
2022-11-13T02:54:33.627Z,101882.97
2022-11-13T02:57:18.900Z,101882.81
2022-11-13T03:00:07.972Z,101881.72
2022-11-13T03:02:57.516Z,101882.41
2022-11-13T03:05:42.650Z,101881.44
2022-11-13T03:08:28.168Z,101876.84
2022-11-13T03:11:13.639Z,101881.16
2022-11-13T03:13:58.897Z,101871.41
2022-11-13T03:16:44.173Z,101879.00
2022-11-13T03:19:29.521Z,101873.53
2022-11-13T03:22:14.621Z,101871.66
2022-11-13T03:24:59.768Z,101863.59
2022-11-13T03:27:45.092Z,101866.22
2022-11-13T03:30:30.533Z,101870.50
2022-11-13T03:33:15.986Z,101866.88
2022-11-13T03:36:01.033Z,101864.88
2022-11-13T03:38:46.138Z,101865.59
2022-11-13T03:41:30.987Z,101864.50
2022-11-13T03:44:16.187Z,101864.31
2022-11-13T03:47:01.645Z,101850.94
2022-11-13T03:49:46.907Z,101857.81
2022-11-13T03:52:31.993Z,101854.19
2022-11-13T03:55:16.961Z,101858.44
2022-11-13T03:58:01.924Z,101852.28
2022-11-13T04:00:47.800Z,101850.50
2022-11-13T04:03:32.826Z,101851.38
2022-11-13T04:06:18.228Z,101854.72
2022-11-13T04:09:03.128Z,101850.19
2022-11-13T04:11:48.491Z,101855.25
2022-11-13T04:14:33.339Z,101837.56
2022-11-13T04:17:18.882Z,101844.41
2022-11-13T04:20:04.448Z,101836.47
2022-11-13T04:22:49.391Z,101839.06
2022-11-13T04:25:34.868Z,101829.41
2022-11-13T04:28:20.055Z,101831.06
2022-11-13T04:31:06.462Z,101825.63
2022-11-13T04:33:51.749Z,101824.72
2022-11-13T04:36:37.226Z,101831.66
2022-11-13T04:39:22.193Z,101826.34
2022-11-13T04:42:25.888Z,101824.53
2022-11-13T04:45:11.243Z,101820.03
2022-11-13T04:47:56.600Z,101829.56
2022-11-13T04:50:41.800Z,101824.16
2022-11-13T04:53:26.980Z,101819.72
2022-11-13T04:56:11.827Z,101819.81
2022-11-13T04:58:57.180Z,101815.41
2022-11-13T05:01:42.366Z,101820.47
2022-11-13T05:04:27.691Z,101815.09
2022-11-13T05:07:13.067Z,101814.09
2022-11-13T05:09:58.420Z,101819.31
2022-11-13T05:12:43.716Z,101808.78
2022-11-13T05:15:28.946Z,101798.16
2022-11-13T05:18:14.407Z,101796.25
2022-11-13T05:20:59.406Z,101797.97
2022-11-13T05:23:44.686Z,101804.81
2022-11-13T05:26:30.087Z,101808.94
2022-11-13T05:29:15.286Z,101800.88
2022-11-13T05:32:00.558Z,101800.00
2022-11-13T05:34:45.651Z,101796.47
2022-11-13T05:37:31.094Z,101789.44
2022-11-13T05:40:16.494Z,101786.72
2022-11-13T05:43:01.395Z,101786.72
2022-11-13T05:45:46.613Z,101785.72
2022-11-13T05:48:32.157Z,101778.72
2022-11-13T05:51:21.123Z,101777.69
2022-11-13T05:54:06.475Z,101778.53
2022-11-13T05:56:51.677Z,101786.25
2022-11-13T05:59:37.173Z,101783.53
2022-11-13T06:02:22.526Z,101791.38
2022-11-13T06:05:07.876Z,101788.66
2022-11-13T06:07:52.877Z,101773.81
2022-11-13T06:10:38.289Z,101781.66
2022-11-13T06:13:23.397Z,101778.94
2022-11-13T06:16:11.681Z,101775.34
2022-11-13T06:18:59.522Z,101773.31
2022-11-13T06:21:44.641Z,101770.53
2022-11-13T06:24:29.726Z,101770.31
2022-11-13T06:27:15.082Z,101758.00
2022-11-13T06:30:00.217Z,101778.66
2022-11-13T06:32:45.161Z,101775.03
2022-11-13T06:35:30.829Z,101775.78
2022-11-13T06:38:16.006Z,101776.56
2022-11-13T06:41:02.068Z,101763.31
2022-11-13T06:43:47.747Z,101757.91
2022-11-13T06:46:32.851Z,101766.53
2022-11-13T06:49:17.944Z,101770.06
2022-11-13T06:52:03.101Z,101764.00
2022-11-13T06:54:48.320Z,101777.19
2022-11-13T06:57:33.430Z,101778.06
2022-11-13T07:00:18.822Z,101779.16
2022-11-13T07:03:03.890Z,101779.38
2022-11-13T07:05:49.615Z,101781.38
2022-11-13T07:08:34.960Z,101780.16
2022-11-13T07:11:23.335Z,101770.19
2022-11-13T07:14:10.920Z,101769.88
2022-11-13T07:17:09.354Z,101770.19
2022-11-13T07:19:55.430Z,101783.69
2022-11-13T07:22:40.366Z,101780.47
2022-11-13T07:25:27.091Z,101790.22
2022-11-13T07:28:12.561Z,101785.19
2022-11-13T07:30:58.951Z,101780.25
2022-11-13T07:33:44.984Z,101787.56
2022-11-13T07:36:30.014Z,101792.44
2022-11-13T07:39:14.978Z,101789.41
2022-11-13T07:42:00.224Z,101790.56
2022-11-13T07:44:54.432Z,101790.97
2022-11-13T07:47:40.710Z,101789.34
2022-11-13T07:50:31.274Z,101792.31
2022-11-13T07:53:17.356Z,101797.75
2022-11-13T07:56:04.047Z,101794.69
2022-11-13T07:58:49.839Z,101788.00
2022-11-13T08:01:35.029Z,101785.69
2022-11-13T08:04:20.213Z,101786.47
2022-11-13T08:07:05.484Z,101792.41
2022-11-13T08:09:50.952Z,101782.59
2022-11-13T08:12:36.029Z,101780.88
2022-11-13T08:15:20.987Z,101776.94
2022-11-13T08:18:06.666Z,101779.00
2022-11-13T08:20:51.668Z,101775.03
2022-11-13T08:23:36.582Z,101775.41
2022-11-13T08:26:22.545Z,101779.19
2022-11-13T08:29:07.571Z,101771.50
2022-11-13T08:31:52.697Z,101772.69
2022-11-13T08:34:40.030Z,101769.41
2022-11-13T08:37:25.165Z,101769.63
2022-11-13T08:40:10.860Z,101780.25
2022-11-13T08:43:00.639Z,101767.41
2022-11-13T08:45:47.195Z,101756.59
2022-11-13T08:48:32.554Z,101765.75
2022-11-13T08:51:18.330Z,101760.25
2022-11-13T08:54:03.721Z,101757.41
2022-11-13T08:56:52.982Z,101756.38
2022-11-13T08:59:41.046Z,101756.22
2022-11-13T09:02:27.183Z,101762.63
2022-11-13T09:05:12.505Z,101763.06
2022-11-13T09:07:59.402Z,101756.56
2022-11-13T09:10:44.861Z,101769.13
2022-11-13T09:13:30.718Z,101761.66
2022-11-13T09:16:15.724Z,101760.00
2022-11-13T09:19:01.244Z,101759.13
2022-11-13T09:21:47.156Z,101766.09
2022-11-13T09:24:32.878Z,101766.16
2022-11-13T09:27:18.391Z,101761.78
2022-11-13T09:30:04.153Z,101756.31
2022-11-13T09:32:54.406Z,101762.22
2022-11-13T09:35:39.394Z,101757.84
2022-11-13T09:38:24.618Z,101769.97
2022-11-13T09:41:11.511Z,101764.53
2022-11-13T09:44:01.612Z,101756.34
2022-11-13T09:47:19.980Z,101760.47
2022-11-13T09:50:11.011Z,101749.63
2022-11-13T09:52:57.212Z,101745.59
2022-11-13T09:56:17.174Z,101740.06
2022-11-13T09:59:11.892Z,101747.44
2022-11-13T10:02:30.229Z,101737.91
2022-11-13T10:05:15.500Z,101740.09
2022-11-13T10:08:06.249Z,101736.91
2022-11-13T10:10:59.481Z,101731.94
2022-11-13T10:13:49.214Z,101732.06
2022-11-13T10:16:45.073Z,101730.38
2022-11-13T10:19:40.397Z,101726.00
2022-11-13T10:22:35.958Z,101720.84
2022-11-13T10:25:28.676Z,101712.47
2022-11-13T10:31:51.043Z,101711.91
2022-11-13T10:34:36.025Z,101711.22
2022-11-13T10:37:55.994Z,101701.13
2022-11-13T10:40:41.362Z,101702.03
2022-11-13T10:43:27.320Z,101695.75
2022-11-13T10:46:19.309Z,101708.41
2022-11-13T10:49:21.784Z,101687.44
2022-11-13T10:52:47.766Z,101692.47
2022-11-13T10:55:40.692Z,101698.00
2022-11-13T10:58:26.512Z,101682.53
2022-11-13T11:01:21.905Z,101676.16
2022-11-13T11:04:20.278Z,101671.19
2022-11-13T11:07:21.563Z,101678.59
2022-11-13T11:10:29.879Z,101689.38
2022-11-13T11:13:22.779Z,101681.66
2022-11-13T11:16:10.550Z,101686.88
2022-11-13T11:19:04.139Z,101675.41
2022-11-13T11:21:53.499Z,101669.28
2022-11-13T11:24:45.304Z,101659.69
2022-11-13T11:27:39.951Z,101656.38
2022-11-13T11:30:26.799Z,101649.41
2022-11-13T11:33:35.518Z,101651.94
2022-11-13T11:36:41.902Z,101651.75
2022-11-13T11:39:50.437Z,101650.69
2022-11-13T11:43:01.401Z,101647.00
2022-11-13T11:45:47.343Z,101645.22
2022-11-13T11:48:34.408Z,101643.53
2022-11-13T11:51:31.212Z,101653.09
2022-11-13T11:54:42.299Z,101656.59
2022-11-13T11:57:55.298Z,101638.25
2022-11-13T12:00:50.153Z,101637.63
2022-11-13T12:04:16.091Z,101637.16
2022-11-13T12:07:37.849Z,101628.28
2022-11-13T12:10:43.118Z,101621.00
2022-11-13T12:13:31.614Z,101620.00
2022-11-13T12:16:28.053Z,101612.91
2022-11-13T12:19:23.264Z,101610.13
2022-11-13T12:22:25.818Z,101611.53
2022-11-13T12:25:24.532Z,101605.16
2022-11-13T12:28:13.412Z,101611.31
2022-11-13T12:31:11.752Z,101607.78
2022-11-13T12:34:06.220Z,101612.25
2022-11-13T12:36:52.876Z,101613.19
2022-11-13T12:40:01.489Z,101608.88
2022-11-13T12:42:51.340Z,101608.06
2022-11-13T12:45:36.564Z,101600.78
2022-11-13T12:48:28.438Z,101603.41
2022-11-13T12:51:18.480Z,101589.22
2022-11-13T12:54:03.857Z,101591.81
2022-11-13T12:56:49.271Z,101594.38
2022-11-13T12:59:39.184Z,101591.59
2022-11-13T13:03:06.981Z,101581.94
2022-11-13T13:06:20.604Z,101574.97
2022-11-13T13:09:18.669Z,101574.03
2022-11-13T13:12:31.815Z,101580.09
2022-11-13T13:15:39.874Z,101574.66
2022-11-13T13:18:32.314Z,101577.22
2022-11-13T13:21:19.472Z,101576.22
2022-11-13T13:24:26.076Z,101570.03
2022-11-13T13:27:30.128Z,101564.75
2022-11-13T13:30:21.356Z,101559.38
2022-11-13T13:33:22.194Z,101560.16
2022-11-13T13:36:29.508Z,101546.91
2022-11-13T13:45:26.811Z,101558.94
2022-11-13T13:48:15.450Z,101550.00
2022-11-13T13:51:02.096Z,101538.56
2022-11-13T13:53:49.136Z,101551.75
2022-11-13T13:56:40.139Z,101546.34
2022-11-13T13:59:32.023Z,101548.06
2022-11-13T14:02:19.824Z,101536.69
2022-11-13T14:05:29.064Z,101532.13
2022-11-13T14:08:19.195Z,101532.03
2022-11-13T14:11:18.224Z,101533.72
2022-11-13T14:14:21.470Z,101534.50
2022-11-13T14:17:08.881Z,101523.84
2022-11-13T14:19:55.683Z,101528.22
2022-11-13T14:22:43.018Z,101524.72
2022-11-13T14:25:29.232Z,101522.94
2022-11-13T14:28:53.645Z,101520.31
2022-11-13T14:31:39.111Z,101507.13
2022-11-13T14:34:24.411Z,101501.84
2022-11-13T14:37:33.011Z,101503.53
2022-11-13T14:40:26.772Z,101499.94
2022-11-13T14:43:30.947Z,101503.53
2022-11-13T14:46:44.224Z,101508.91
2022-11-13T14:49:35.756Z,101510.72
2022-11-13T14:52:26.118Z,101504.63
2022-11-13T14:55:23.641Z,101509.13
2022-11-13T14:58:12.808Z,101499.53
2022-11-13T15:00:59.797Z,101501.25
2022-11-13T15:03:46.393Z,101491.56
2022-11-13T15:06:38.053Z,101488.09
2022-11-13T15:09:25.406Z,101492.59
2022-11-13T15:12:12.284Z,101502.38
2022-11-13T15:14:57.344Z,101498.03
2022-11-13T15:17:44.744Z,101498.09
2022-11-13T15:20:30.927Z,101498.97
2022-11-13T15:23:16.649Z,101487.50
2022-11-13T15:26:01.934Z,101490.97
2022-11-13T15:28:47.230Z,101483.91
2022-11-13T15:31:34.032Z,101487.38
2022-11-13T15:34:19.212Z,101483.91
2022-11-13T15:37:12.116Z,101474.16
2022-11-13T15:39:57.313Z,101476.75
2022-11-13T15:42:43.754Z,101475.84
2022-11-13T15:45:28.907Z,101470.72
2022-11-13T15:48:13.961Z,101468.91
2022-11-13T15:50:59.209Z,101473.22
2022-11-13T15:53:48.359Z,101454.75
2022-11-13T15:56:33.685Z,101457.34
2022-11-13T15:59:18.650Z,101466.13
2022-11-13T16:02:04.065Z,101473.13
2022-11-13T16:04:56.500Z,101465.22
2022-11-13T16:07:42.607Z,101465.22
2022-11-13T16:10:27.750Z,101466.13
2022-11-13T16:13:13.168Z,101459.94
2022-11-13T16:15:59.647Z,101453.78
2022-11-13T16:18:45.029Z,101441.50
2022-11-13T16:21:30.806Z,101454.75
2022-11-13T16:24:18.793Z,101446.00
2022-11-13T16:27:06.541Z,101453.06
2022-11-13T16:29:51.965Z,101445.09
2022-11-13T16:32:36.962Z,101452.22
2022-11-13T16:35:22.077Z,101440.81
2022-11-13T16:38:12.845Z,101445.34
2022-11-13T16:40:58.036Z,101439.25
2022-11-13T16:43:44.252Z,101429.56
2022-11-13T16:46:29.295Z,101429.56
2022-11-13T16:49:19.051Z,101424.28
2022-11-13T16:52:05.054Z,101418.22
2022-11-13T16:54:51.512Z,101425.28
2022-11-13T16:57:37.601Z,101420.91
2022-11-13T17:00:25.376Z,101416.53
2022-11-13T17:03:10.452Z,101420.03
2022-11-13T17:05:55.628Z,101415.63
2022-11-13T17:08:41.070Z,101420.91
2022-11-13T17:11:29.399Z,101417.31
2022-11-13T17:14:14.397Z,101410.22
2022-11-13T17:16:59.725Z,101412.81
2022-11-13T17:19:44.708Z,101407.41
2022-11-13T17:22:29.819Z,101409.59
2022-11-13T17:25:16.891Z,101410.06
2022-11-13T17:28:01.827Z,101408.97
2022-11-13T17:30:47.172Z,101402.75
2022-11-13T17:33:32.460Z,101413.16
2022-11-13T17:36:17.824Z,101399.63
2022-11-13T17:39:04.066Z,101403.69
2022-11-13T17:41:50.632Z,101406.03
2022-11-13T17:44:36.061Z,101401.31
2022-11-13T17:47:21.385Z,101406.28
2022-11-13T17:50:08.026Z,101401.69
2022-11-13T17:52:53.328Z,101402.31
2022-11-13T17:55:38.408Z,101400.25
2022-11-13T17:58:24.654Z,101407.88
2022-11-13T18:01:16.121Z,101390.88
2022-11-13T18:04:01.359Z,101391.47
2022-11-13T18:06:46.994Z,101393.06
2022-11-13T18:09:32.679Z,101389.38
2022-11-13T18:12:18.214Z,101383.03
2022-11-13T18:15:04.597Z,101380.22
2022-11-13T18:17:49.961Z,101378.25
2022-11-13T18:20:38.438Z,101380.78
2022-11-13T18:23:23.901Z,101381.50
2022-11-13T18:26:19.331Z,101376.94
2022-11-13T18:29:04.915Z,101371.69
2022-11-13T18:31:50.119Z,101367.41
2022-11-13T18:34:35.216Z,101363.16
2022-11-13T18:37:20.415Z,101356.13
2022-11-13T18:40:06.805Z,101356.91
2022-11-13T18:42:52.032Z,101348.78
2022-11-13T18:45:37.612Z,101350.41
2022-11-13T18:48:23.105Z,101344.06
2022-11-13T18:51:12.142Z,101339.44
2022-11-13T18:53:57.300Z,101341.88
2022-11-13T18:56:42.756Z,101347.78
2022-11-13T18:59:28.437Z,101338.81
2022-11-13T19:02:14.117Z,101344.78
2022-11-13T19:04:59.544Z,101332.31
2022-11-13T19:07:44.784Z,101331.28
2022-11-13T19:10:30.384Z,101319.69
2022-11-13T19:13:15.562Z,101318.59
2022-11-13T19:16:05.870Z,101325.56
2022-11-13T19:18:54.192Z,101322.78
2022-11-13T19:21:39.212Z,101323.56
2022-11-13T19:24:24.154Z,101311.19
2022-11-13T19:27:09.389Z,101311.09
2022-11-13T19:29:54.654Z,101302.25
2022-11-13T19:32:39.911Z,101302.09
2022-11-13T19:35:26.314Z,101298.38
2022-11-13T19:38:11.619Z,101288.56
2022-11-13T19:40:57.140Z,101286.75
2022-11-13T19:43:42.234Z,101275.22
2022-11-13T19:46:28.651Z,101283.91
2022-11-13T19:49:13.762Z,101279.56
2022-11-13T19:52:01.425Z,101273.56
2022-11-13T19:54:46.859Z,101267.56
2022-11-13T19:57:31.955Z,101262.59
2022-11-13T20:00:17.927Z,101262.97
2022-11-13T20:03:07.416Z,101251.94
2022-11-13T20:06:01.030Z,101256.69
2022-11-13T20:08:46.107Z,101250.09
2022-11-13T20:11:31.477Z,101250.41
2022-11-13T20:14:16.774Z,101245.34
2022-11-13T20:17:01.701Z,101248.16
2022-11-13T20:19:47.023Z,101247.50
2022-11-13T20:22:32.384Z,101239.75
2022-11-13T20:25:17.787Z,101249.56
2022-11-13T20:28:02.783Z,101245.25
2022-11-13T20:30:48.319Z,101241.75
2022-11-13T20:33:34.918Z,101246.16
2022-11-13T20:36:20.466Z,101243.38
2022-11-13T20:39:09.103Z,101239.75
2022-11-13T20:41:54.890Z,101240.47
2022-11-13T20:44:40.158Z,101234.16
2022-11-13T20:47:25.365Z,101234.06
2022-11-13T20:50:11.591Z,101233.81
2022-11-13T20:52:56.778Z,101238.88
2022-11-13T20:55:43.105Z,101227.34
2022-11-13T20:58:28.679Z,101218.44
2022-11-13T21:01:16.882Z,101218.19
2022-11-13T21:04:02.888Z,101217.13
2022-11-13T21:06:48.435Z,101216.13
2022-11-13T21:09:33.998Z,101213.25
2022-11-13T21:12:19.330Z,101221.81
2022-11-13T21:15:05.231Z,101223.38
2022-11-13T21:17:51.447Z,101210.81
2022-11-13T21:20:37.389Z,101211.50
2022-11-13T21:23:22.953Z,101194.72
2022-11-13T21:26:09.185Z,101196.31
2022-11-13T21:28:56.277Z,101190.06
2022-11-13T21:31:41.631Z,101186.41
2022-11-13T21:34:26.570Z,101177.47
2022-11-13T21:37:14.306Z,101186.16
2022-11-13T21:39:59.804Z,101180.84
2022-11-13T21:42:45.360Z,101186.81
2022-11-13T21:45:33.512Z,101183.22
2022-11-13T21:48:18.637Z,101174.38
2022-11-13T21:51:04.173Z,101182.25
2022-11-13T21:53:49.672Z,101175.28
2022-11-13T21:56:36.629Z,101173.47
2022-11-13T21:59:21.632Z,101169.03
2022-11-13T22:02:10.448Z,101168.06
2022-11-13T22:04:55.617Z,101165.44
2022-11-13T22:07:40.718Z,101162.59
2022-11-13T22:15:46.910Z,101164.22
2022-11-13T22:18:31.724Z,101157.25
2022-11-13T22:21:16.587Z,101167.69
2022-11-13T22:24:01.823Z,101166.75
2022-11-13T22:26:47.076Z,101162.44
2022-11-13T22:29:31.448Z,101154.69
2022-11-13T22:32:15.844Z,101148.59
2022-11-13T22:41:00.134Z,101136.06
2022-11-13T22:43:46.515Z,101122.84
2022-11-13T22:46:32.783Z,101125.44
2022-11-13T22:49:18.421Z,101124.72
2022-11-13T22:52:03.143Z,101123.91
2022-11-13T22:54:47.611Z,101125.72
2022-11-13T23:00:21.791Z,101131.28
2022-11-13T23:03:06.194Z,101138.22
2022-11-13T23:05:50.693Z,101125.19
2022-11-13T23:08:38.292Z,101134.03
2022-11-13T23:14:09.928Z,101140.28
2022-11-13T23:16:54.897Z,101130.75
2022-11-13T23:19:39.875Z,101127.34
2022-11-13T23:22:24.774Z,101134.38
2022-11-13T23:25:10.115Z,101123.75
2022-11-13T23:27:55.246Z,101124.56
2022-11-13T23:30:40.511Z,101124.47
2022-11-13T23:33:25.536Z,101117.50
2022-11-13T23:36:12.498Z,101107.91
2022-11-13T23:38:57.648Z,101115.16
2022-11-13T23:41:42.492Z,101113.72
2022-11-13T23:44:27.798Z,101112.28
2022-11-13T23:47:12.775Z,101102.09
2022-11-13T23:49:58.265Z,101096.28
2022-11-13T23:52:43.524Z,101093.88
2022-11-13T23:55:28.901Z,101087.97
2022-11-13T23:58:15.767Z,101084.56
